createdAt,value
2023-05-21T00:00:45.285Z,82.86
2023-05-21T00:01:45.252Z,83.06
2023-05-21T00:02:45.320Z,81.95
2023-05-21T00:03:45.356Z,81.64
2023-05-21T00:04:45.230Z,80.83
2023-05-21T00:05:45.209Z,82.25
2023-05-21T00:06:45.196Z,83.37
2023-05-21T00:07:45.174Z,83.00
2023-05-21T00:08:45.170Z,82.59
2023-05-21T00:09:45.143Z,82.09
2023-05-21T00:10:45.128Z,83.81
2023-05-21T00:11:45.120Z,83.51
2023-05-21T00:12:45.102Z,81.68
2023-05-21T00:13:45.094Z,82.09
2023-05-21T00:14:45.070Z,83.00
2023-05-21T00:15:45.052Z,81.88
2023-05-21T00:16:45.182Z,81.07
2023-05-21T00:17:45.038Z,81.58
2023-05-21T00:18:45.053Z,82.19
2023-05-21T00:19:45.027Z,83.00
2023-05-21T00:20:45.032Z,82.90
2023-05-21T00:21:44.986Z,81.48
2023-05-21T00:22:44.980Z,82.29
2023-05-21T00:23:44.936Z,82.39
2023-05-21T00:24:44.967Z,82.80
2023-05-21T00:25:44.944Z,82.50
2023-05-21T00:26:44.919Z,83.20
2023-05-21T00:27:44.893Z,82.29
2023-05-21T00:28:44.887Z,82.29
2023-05-21T00:29:44.872Z,82.64
2023-05-21T00:30:44.862Z,82.03
2023-05-21T00:31:44.864Z,82.12
2023-05-21T00:32:44.840Z,81.41
2023-05-21T00:33:44.815Z,81.62
2023-05-21T00:34:44.804Z,82.53
2023-05-21T00:35:44.809Z,83.34
2023-05-21T00:36:44.770Z,83.65
2023-05-21T00:37:44.761Z,83.85
2023-05-21T00:38:44.746Z,82.57
2023-05-21T00:39:44.722Z,82.87
2023-05-21T00:40:44.734Z,83.89
2023-05-21T00:41:44.700Z,83.79
2023-05-21T00:42:44.693Z,82.67
2023-05-21T00:43:44.674Z,83.79
2023-05-21T00:44:44.682Z,83.38
2023-05-21T00:45:44.718Z,83.28
2023-05-21T00:46:44.632Z,83.18
2023-05-21T00:47:44.667Z,83.89
2023-05-21T00:48:44.615Z,83.08
2023-05-21T00:49:44.600Z,82.87
2023-05-21T00:50:44.579Z,82.92
2023-05-21T00:51:44.574Z,82.67
2023-05-21T00:52:44.557Z,83.18
2023-05-21T00:53:44.544Z,83.59
2023-05-21T00:54:44.554Z,82.37
2023-05-21T00:55:44.518Z,82.37
2023-05-21T00:56:44.498Z,82.51
2023-05-21T00:57:44.472Z,82.10
2023-05-21T00:58:44.511Z,82.51
2023-05-21T00:59:44.498Z,81.59
2023-05-21T01:00:44.456Z,82.00
2023-05-21T01:01:44.463Z,82.81
2023-05-21T01:02:44.577Z,82.20
2023-05-21T01:03:44.453Z,80.07
2023-05-21T01:04:44.398Z,80.78
2023-05-21T01:05:44.372Z,81.59
2023-05-21T01:06:44.371Z,81.29
2023-05-21T01:07:44.360Z,81.90
2023-05-21T01:08:44.381Z,81.25
2023-05-21T01:09:44.309Z,80.84
2023-05-21T01:10:44.318Z,82.57
2023-05-21T01:11:44.302Z,83.32
2023-05-21T01:12:44.324Z,82.61
2023-05-21T01:13:44.257Z,81.49
2023-05-21T01:14:44.262Z,81.90
2023-05-21T01:15:44.229Z,82.71
2023-05-21T01:16:44.283Z,83.53
2023-05-21T01:17:44.250Z,83.12
2023-05-21T01:18:44.246Z,83.32
2023-05-21T01:19:44.279Z,81.73
2023-05-21T01:20:44.176Z,82.45
2023-05-21T01:21:44.153Z,82.20
2023-05-21T01:22:44.170Z,82.61
2023-05-21T01:23:44.131Z,82.71
2023-05-21T01:24:44.124Z,83.73
2023-05-21T01:25:44.107Z,83.12
2023-05-21T01:26:44.132Z,83.46
2023-05-21T01:27:44.091Z,81.73
2023-05-21T01:28:44.079Z,82.95
2023-05-21T01:29:44.042Z,83.67
2023-05-21T01:30:44.041Z,83.56
2023-05-21T01:31:44.038Z,83.26
2023-05-21T01:32:44.082Z,83.15
2023-05-21T01:33:44.027Z,82.95
2023-05-21T01:34:43.984Z,82.85
2023-05-21T01:35:43.957Z,83.06
2023-05-21T01:36:43.967Z,82.85
2023-05-21T01:37:43.952Z,82.24
2023-05-21T01:38:43.921Z,82.04
2023-05-21T01:39:43.912Z,82.65
2023-05-21T01:40:43.921Z,83.26
2023-05-21T01:41:43.895Z,81.67
2023-05-21T01:42:43.874Z,81.63
2023-05-21T01:43:43.857Z,82.45
2023-05-21T01:44:43.861Z,82.75
2023-05-21T01:45:43.852Z,83.46
2023-05-21T01:46:43.922Z,83.26
2023-05-21T01:47:43.850Z,82.75
2023-05-21T01:48:43.817Z,82.24
2023-05-21T01:49:43.790Z,83.15
2023-05-21T01:50:43.785Z,82.75
2023-05-21T01:51:43.745Z,83.56
2023-05-21T01:52:43.750Z,85.09
2023-05-21T01:53:43.736Z,84.82
2023-05-21T01:54:43.738Z,84.82
2023-05-21T01:55:43.722Z,85.64
2023-05-21T01:56:43.715Z,85.23
2023-05-21T01:57:43.681Z,85.13
2023-05-21T01:58:43.680Z,85.53
2023-05-21T01:59:43.667Z,85.68
2023-05-21T02:00:43.625Z,85.78
2023-05-21T02:01:43.681Z,86.59
2023-05-21T02:02:43.646Z,86.59
2023-05-21T02:03:43.666Z,86.08
2023-05-21T02:04:43.610Z,85.61
2023-05-21T02:05:43.576Z,85.21
2023-05-21T02:06:43.565Z,84.29
2023-05-21T02:07:43.554Z,84.19
2023-05-21T02:08:43.530Z,85.31
2023-05-21T02:09:43.553Z,85.61
2023-05-21T02:10:43.521Z,85.51
2023-05-21T02:11:43.501Z,85.31
2023-05-21T02:12:43.484Z,84.80
2023-05-21T02:13:43.472Z,86.33
2023-05-21T02:14:43.468Z,87.04
2023-05-21T02:15:43.430Z,86.63
2023-05-21T02:16:43.575Z,87.14
2023-05-21T02:17:43.423Z,86.43
2023-05-21T02:18:43.589Z,85.72
2023-05-21T02:19:43.374Z,84.19
2023-05-21T02:20:43.383Z,85.41
2023-05-21T02:21:43.359Z,84.70
2023-05-21T02:22:43.358Z,85.82
2023-05-21T02:23:43.352Z,86.80
2023-05-21T02:24:43.324Z,86.33
2023-05-21T02:25:43.303Z,85.92
2023-05-21T02:26:43.293Z,86.08
2023-05-21T02:27:43.318Z,85.41
2023-05-21T02:28:43.286Z,84.45
2023-05-21T02:29:43.259Z,84.56
2023-05-21T02:30:43.224Z,84.66
2023-05-21T02:31:43.232Z,86.19
2023-05-21T02:32:43.383Z,85.98
2023-05-21T02:33:43.241Z,86.08
2023-05-21T02:34:43.198Z,86.49
2023-05-21T02:35:43.177Z,85.78
2023-05-21T02:36:43.165Z,85.06
2023-05-21T02:37:43.141Z,83.84
2023-05-21T02:38:43.132Z,84.97
2023-05-21T02:39:43.111Z,85.06
2023-05-21T02:40:43.104Z,85.37
2023-05-21T02:41:43.105Z,85.78
2023-05-21T02:42:43.098Z,85.06
2023-05-21T02:43:43.055Z,85.78
2023-05-21T02:44:43.059Z,86.69
2023-05-21T02:45:43.025Z,85.47
2023-05-21T02:46:43.035Z,86.90
2023-05-21T02:47:43.086Z,86.49
2023-05-21T02:48:42.984Z,86.59
2023-05-21T02:49:42.968Z,87.10
2023-05-21T02:50:42.993Z,86.90
2023-05-21T02:51:42.962Z,85.68
2023-05-21T02:52:42.941Z,86.59
2023-05-21T02:53:42.927Z,85.27
2023-05-21T02:54:42.907Z,85.06
2023-05-21T02:55:42.913Z,85.58
2023-05-21T02:56:42.902Z,85.78
2023-05-21T02:57:42.874Z,85.64
2023-05-21T02:58:42.879Z,86.59
2023-05-21T02:59:42.848Z,85.17
2023-05-21T03:00:42.868Z,84.76
2023-05-21T03:01:42.863Z,84.92
2023-05-21T03:02:42.854Z,85.74
2023-05-21T03:03:42.808Z,85.03
2023-05-21T03:04:42.792Z,85.23
2023-05-21T03:05:42.764Z,86.35
2023-05-21T03:06:42.743Z,86.15
2023-05-21T03:07:42.728Z,84.66
2023-05-21T03:08:42.717Z,84.35
2023-05-21T03:09:42.761Z,83.44
2023-05-21T03:10:42.721Z,84.45
2023-05-21T03:11:42.684Z,85.58
2023-05-21T03:12:42.670Z,85.06
2023-05-21T03:13:42.785Z,84.15
2023-05-21T03:14:42.691Z,84.66
2023-05-21T03:15:42.646Z,85.37
2023-05-21T03:16:42.667Z,84.76
2023-05-21T03:17:42.664Z,84.15
2023-05-21T03:18:42.596Z,83.95
2023-05-21T03:19:42.593Z,83.74
2023-05-21T03:20:42.560Z,82.42
2023-05-21T03:21:42.554Z,81.30
2023-05-21T03:22:42.538Z,82.93
2023-05-21T03:23:42.528Z,82.52
2023-05-21T03:24:42.523Z,82.93
2023-05-21T03:25:42.490Z,82.42
2023-05-21T03:26:42.500Z,83.54
2023-05-21T03:27:42.484Z,83.54
2023-05-21T03:28:42.472Z,84.25
2023-05-21T03:29:42.446Z,84.76
2023-05-21T03:30:42.427Z,83.84
2023-05-21T03:31:42.427Z,83.95
2023-05-21T03:32:42.458Z,82.42
2023-05-21T03:33:42.397Z,81.20
2023-05-21T03:34:42.384Z,81.20
2023-05-21T03:35:42.370Z,84.05
2023-05-21T03:36:42.380Z,83.44
2023-05-21T03:37:42.343Z,83.03
2023-05-21T03:38:42.349Z,84.05
2023-05-21T03:39:42.302Z,84.45
2023-05-21T03:40:42.311Z,84.25
2023-05-21T03:41:42.292Z,84.56
2023-05-21T03:42:42.280Z,83.64
2023-05-21T03:43:42.262Z,83.84
2023-05-21T03:44:42.248Z,83.50
2023-05-21T03:45:44.360Z,83.03
2023-05-21T03:46:42.357Z,83.40
2023-05-21T03:47:42.253Z,84.92
2023-05-21T03:48:42.209Z,85.53
2023-05-21T03:49:42.173Z,84.52
2023-05-21T03:50:42.156Z,84.11
2023-05-21T03:51:42.160Z,83.50
2023-05-21T03:52:42.161Z,84.72
2023-05-21T03:53:42.148Z,84.92
2023-05-21T03:54:42.103Z,85.03
2023-05-21T03:55:42.129Z,84.92
2023-05-21T03:56:42.101Z,85.84
2023-05-21T03:57:42.093Z,84.31
2023-05-21T03:58:42.047Z,85.13
2023-05-21T03:59:42.073Z,85.94
2023-05-21T04:00:42.041Z,85.74
2023-05-21T04:01:42.031Z,87.26
2023-05-21T04:02:42.063Z,86.35
2023-05-21T04:03:42.177Z,85.80
2023-05-21T04:04:42.006Z,85.09
2023-05-21T04:05:41.972Z,85.19
2023-05-21T04:06:41.943Z,84.68
2023-05-21T04:07:41.980Z,84.99
2023-05-21T04:08:41.925Z,84.07
2023-05-21T04:09:41.928Z,84.07
2023-05-21T04:10:41.899Z,84.48
2023-05-21T04:11:41.899Z,84.38
2023-05-21T04:12:41.868Z,84.38
2023-05-21T04:13:41.869Z,86.37
2023-05-21T04:14:41.851Z,86.77
2023-05-21T04:15:41.837Z,85.46
2023-05-21T04:16:41.843Z,86.07
2023-05-21T04:17:41.821Z,86.57
2023-05-21T04:18:44.143Z,85.66
2023-05-21T04:19:41.803Z,83.32
2023-05-21T04:20:41.762Z,83.73
2023-05-21T04:21:41.758Z,82.51
2023-05-21T04:22:41.745Z,83.22
2023-05-21T04:23:41.775Z,84.20
2023-05-21T04:24:41.724Z,84.70
2023-05-21T04:25:41.719Z,84.20
2023-05-21T04:26:41.696Z,84.20
2023-05-21T04:27:41.684Z,83.34
2023-05-21T04:28:41.657Z,83.14
2023-05-21T04:29:41.659Z,82.12
2023-05-21T04:30:41.625Z,83.65
2023-05-21T04:31:41.738Z,83.51
2023-05-21T04:32:41.631Z,83.91
2023-05-21T04:33:41.601Z,83.00
2023-05-21T04:34:41.576Z,82.70
2023-05-21T04:35:41.597Z,82.39
2023-05-21T04:36:41.538Z,81.68
2023-05-21T04:37:41.542Z,81.78
2023-05-21T04:38:41.536Z,82.19
2023-05-21T04:39:41.536Z,84.01
2023-05-21T04:40:41.500Z,84.52
2023-05-21T04:41:41.483Z,82.29
2023-05-21T04:42:41.501Z,82.59
2023-05-21T04:43:41.452Z,81.18
2023-05-21T04:44:41.484Z,81.27
2023-05-21T04:45:41.426Z,81.68
2023-05-21T04:46:41.959Z,81.27
2023-05-21T04:47:41.430Z,81.78
2023-05-21T04:48:41.387Z,81.68
2023-05-21T04:49:41.415Z,82.25
2023-05-21T04:50:41.374Z,82.56
2023-05-21T04:51:41.345Z,82.15
2023-05-21T04:52:41.326Z,82.25
2023-05-21T04:53:41.325Z,82.05
2023-05-21T04:54:41.341Z,82.45
2023-05-21T04:55:41.314Z,82.15
2023-05-21T04:56:41.297Z,83.83
2023-05-21T04:57:41.280Z,81.81
2023-05-21T04:58:41.281Z,82.52
2023-05-21T04:59:41.259Z,82.52
2023-05-21T05:00:41.241Z,81.30
2023-05-21T05:01:41.212Z,81.37
2023-05-21T05:02:41.238Z,81.67
2023-05-21T05:03:41.242Z,82.24
2023-05-21T05:04:41.165Z,80.62
2023-05-21T05:05:41.158Z,80.11
2023-05-21T05:06:41.147Z,78.69
2023-05-21T05:07:41.128Z,79.60
2023-05-21T05:08:41.124Z,79.91
2023-05-21T05:09:41.104Z,78.89
2023-05-21T05:10:41.096Z,79.16
2023-05-21T05:11:41.082Z,79.46
2023-05-21T05:12:41.066Z,79.46
2023-05-21T05:13:41.310Z,79.77
2023-05-21T05:14:41.038Z,78.35
2023-05-21T05:15:41.027Z,80.07
2023-05-21T05:16:41.049Z,80.54
2023-05-21T05:17:41.084Z,79.02
2023-05-21T05:18:40.989Z,79.53
2023-05-21T05:19:40.983Z,78.42
2023-05-21T05:20:40.959Z,77.71
2023-05-21T05:21:40.966Z,79.19
2023-05-21T05:22:40.945Z,77.87
2023-05-21T05:23:40.922Z,77.67
2023-05-21T05:24:40.911Z,78.34
2023-05-21T05:25:40.903Z,78.04
2023-05-21T05:26:40.919Z,77.94
2023-05-21T05:27:40.865Z,77.13
2023-05-21T05:28:40.877Z,77.13
2023-05-21T05:29:40.854Z,76.79
2023-05-21T05:30:40.849Z,76.18
2023-05-21T05:31:40.837Z,75.68
2023-05-21T05:32:40.818Z,75.57
2023-05-21T05:33:40.783Z,75.88
2023-05-21T05:34:40.765Z,77.09
2023-05-21T05:35:40.766Z,77.29
2023-05-21T05:36:40.763Z,75.78
2023-05-21T05:37:40.743Z,74.77
2023-05-21T05:38:40.720Z,75.07
2023-05-21T05:39:40.711Z,76.55
2023-05-21T05:40:40.697Z,75.84
2023-05-21T05:41:40.697Z,75.95
2023-05-21T05:42:40.658Z,76.65
2023-05-21T05:43:40.660Z,75.34
2023-05-21T05:44:40.671Z,75.44
2023-05-21T05:45:40.650Z,75.84
2023-05-21T05:46:40.650Z,75.91
2023-05-21T05:47:40.595Z,74.80
2023-05-21T05:48:40.592Z,75.51
2023-05-21T05:49:40.587Z,76.01
2023-05-21T05:50:40.562Z,75.16
2023-05-21T05:51:40.561Z,75.77
2023-05-21T05:52:40.530Z,75.94
2023-05-21T05:53:40.507Z,75.43
2023-05-21T05:54:40.510Z,73.52
2023-05-21T05:55:40.548Z,73.79
2023-05-21T05:56:40.490Z,74.79
2023-05-21T05:57:40.463Z,73.65
2023-05-21T05:58:40.463Z,73.75
2023-05-21T05:59:40.486Z,73.41
2023-05-21T06:00:40.456Z,72.61
2023-05-21T06:01:40.406Z,71.80
2023-05-21T06:02:40.470Z,72.77
2023-05-21T06:03:40.582Z,73.08
2023-05-21T06:04:40.388Z,72.74
2023-05-21T06:05:40.695Z,72.41
2023-05-21T06:06:40.334Z,71.06
2023-05-21T06:07:40.336Z,70.12
2023-05-21T06:08:40.324Z,69.19
2023-05-21T06:09:40.326Z,68.95
2023-05-21T06:10:40.286Z,68.42
2023-05-21T06:11:40.294Z,66.61
2023-05-21T06:12:40.258Z,67.29
2023-05-21T06:13:40.268Z,67.49
2023-05-21T06:14:40.248Z,66.35
2023-05-21T06:15:40.210Z,65.42
2023-05-21T06:16:40.235Z,64.89
2023-05-21T06:17:40.234Z,65.16
2023-05-21T06:18:40.224Z,64.22
2023-05-21T06:19:40.166Z,63.76
2023-05-21T06:20:40.160Z,61.93
2023-05-21T06:21:40.145Z,60.97
2023-05-21T06:22:40.124Z,60.68
2023-05-21T06:23:40.125Z,60.35
2023-05-21T06:24:40.095Z,59.22
2023-05-21T06:25:40.164Z,57.73
2023-05-21T06:26:40.088Z,58.59
2023-05-21T06:27:40.068Z,58.57
2023-05-21T06:28:40.058Z,58.14
2023-05-21T06:29:40.046Z,56.52
2023-05-21T06:30:40.016Z,55.00
2023-05-21T06:31:40.044Z,55.20
2023-05-21T06:32:40.075Z,55.10
2023-05-21T06:33:40.085Z,54.48
2023-05-21T06:34:39.959Z,54.38
2023-05-21T06:35:39.972Z,55.15
2023-05-21T06:36:39.949Z,55.72
2023-05-21T06:37:39.936Z,53.41
2023-05-21T06:38:39.917Z,53.78
2023-05-21T06:39:39.899Z,54.25
2023-05-21T06:40:39.885Z,52.94
2023-05-21T06:41:39.879Z,51.79
2023-05-21T06:42:39.881Z,51.47
2023-05-21T06:43:39.853Z,52.04
2023-05-21T06:44:39.832Z,49.94
2023-05-21T06:45:40.181Z,49.82
2023-05-21T06:46:39.826Z,48.11
2023-05-21T06:47:39.854Z,48.51
2023-05-21T06:48:39.779Z,47.69
2023-05-21T06:49:39.774Z,48.09
2023-05-21T06:50:39.752Z,47.72
2023-05-21T06:51:39.774Z,47.72
2023-05-21T06:52:39.729Z,46.83
2023-05-21T06:53:39.744Z,47.03
2023-05-21T06:54:39.699Z,47.22
2023-05-21T06:55:39.690Z,47.91
2023-05-21T06:56:39.693Z,47.91
2023-05-21T06:57:39.675Z,47.50
2023-05-21T06:58:39.658Z,46.22
2023-05-21T06:59:39.643Z,46.41
2023-05-21T07:00:39.615Z,47.10
2023-05-21T07:01:39.704Z,46.61
2023-05-21T07:02:39.730Z,47.40
2023-05-21T07:03:39.638Z,47.89
2023-05-21T07:04:39.574Z,48.14
2023-05-21T07:05:39.963Z,48.12
2023-05-21T07:06:39.566Z,45.24
2023-05-21T07:07:39.569Z,45.24
2023-05-21T07:08:39.532Z,45.43
2023-05-21T07:09:39.526Z,45.41
2023-05-21T07:10:39.512Z,45.61
2023-05-21T07:11:39.496Z,44.92
2023-05-21T07:12:39.462Z,44.62
2023-05-21T07:13:39.507Z,45.41
2023-05-21T07:14:39.442Z,44.82
2023-05-21T07:15:39.489Z,44.62
2023-05-21T07:16:39.485Z,44.53
2023-05-21T07:17:39.475Z,45.14
2023-05-21T07:18:39.394Z,45.65
2023-05-21T07:19:39.425Z,45.65
2023-05-21T07:20:39.390Z,46.15
2023-05-21T07:21:39.348Z,46.72
2023-05-21T07:22:39.379Z,46.59
2023-05-21T07:23:39.320Z,45.49
2023-05-21T07:24:39.323Z,45.86
2023-05-21T07:25:39.341Z,45.25
2023-05-21T07:26:39.275Z,44.17
2023-05-21T07:27:39.294Z,43.57
2023-05-21T07:28:39.261Z,44.58
2023-05-21T07:29:39.247Z,45.25
2023-05-21T07:30:39.233Z,44.34
2023-05-21T07:31:39.342Z,43.55
2023-05-21T07:32:39.232Z,43.75
2023-05-21T07:33:39.202Z,43.24
2023-05-21T07:34:39.197Z,43.26
2023-05-21T07:35:39.262Z,43.65
2023-05-21T07:36:39.167Z,43.85
2023-05-21T07:37:39.155Z,43.75
2023-05-21T07:38:39.142Z,43.28
2023-05-21T07:39:39.161Z,43.57
2023-05-21T07:40:39.103Z,44.48
2023-05-21T07:41:39.086Z,44.26
2023-05-21T07:42:39.066Z,44.58
2023-05-21T07:43:39.093Z,44.09
2023-05-21T07:44:39.053Z,45.49
2023-05-21T07:45:39.234Z,45.39
2023-05-21T07:46:39.059Z,44.90
2023-05-21T07:47:39.096Z,45.47
2023-05-21T07:48:38.998Z,45.09
2023-05-21T07:49:39.001Z,45.31
2023-05-21T07:50:38.986Z,45.61
2023-05-21T07:51:38.962Z,45.12
2023-05-21T07:52:38.984Z,45.41
2023-05-21T07:53:38.958Z,46.10
2023-05-21T07:54:38.925Z,45.49
2023-05-21T07:55:39.057Z,45.71
2023-05-21T07:56:38.905Z,46.32
2023-05-21T07:57:38.878Z,46.86
2023-05-21T07:58:38.889Z,48.27
2023-05-21T07:59:38.851Z,48.09
2023-05-21T08:00:38.873Z,48.41
2023-05-21T08:01:38.828Z,48.02
2023-05-21T08:02:38.930Z,48.73
2023-05-21T08:03:38.974Z,49.02
2023-05-21T08:04:40.916Z,49.82
2023-05-21T08:05:39.004Z,49.40
2023-05-21T08:06:38.774Z,48.90
2023-05-21T08:07:38.765Z,48.63
2023-05-21T08:08:38.730Z,49.91
2023-05-21T08:09:38.752Z,48.90
2023-05-21T08:10:38.707Z,48.78
2023-05-21T08:11:38.699Z,49.25
2023-05-21T08:12:38.713Z,48.81
2023-05-21T08:13:38.678Z,47.60
2023-05-21T08:14:38.661Z,46.79
2023-05-21T08:15:38.836Z,47.09
2023-05-21T08:16:38.693Z,47.68
2023-05-21T08:17:38.642Z,46.57
2023-05-21T08:18:38.619Z,45.98
2023-05-21T08:19:38.698Z,46.59
2023-05-21T08:20:38.584Z,46.91
2023-05-21T08:21:38.574Z,46.94
2023-05-21T08:22:38.554Z,47.82
2023-05-21T08:23:38.539Z,47.41
2023-05-21T08:24:38.532Z,47.70
2023-05-21T08:25:38.729Z,47.28
2023-05-21T08:26:38.508Z,47.26
2023-05-21T08:27:38.492Z,46.97
2023-05-21T08:28:38.514Z,46.87
2023-05-21T08:29:38.466Z,46.59
2023-05-21T08:30:38.473Z,47.38
2023-05-21T08:31:38.473Z,46.79
2023-05-21T08:32:38.444Z,47.28
2023-05-21T08:33:38.500Z,47.75
2023-05-21T08:34:38.390Z,47.75
2023-05-21T08:35:38.683Z,47.24
2023-05-21T08:36:38.382Z,47.83
2023-05-21T08:37:38.365Z,46.72
2023-05-21T08:38:38.346Z,45.64
2023-05-21T08:39:38.333Z,45.96
2023-05-21T08:40:38.330Z,45.86
2023-05-21T08:41:38.300Z,46.35
2023-05-21T08:42:38.315Z,46.25
2023-05-21T08:43:38.285Z,46.84
2023-05-21T08:44:38.293Z,46.84
2023-05-21T08:45:39.020Z,47.14
2023-05-21T08:46:38.240Z,46.65
2023-05-21T08:47:38.249Z,46.84
2023-05-21T08:48:38.218Z,46.87
2023-05-21T08:49:38.218Z,47.66
2023-05-21T08:50:38.184Z,48.54
2023-05-21T08:51:38.165Z,47.36
2023-05-21T08:52:38.199Z,47.58
2023-05-21T08:53:38.151Z,47.78
2023-05-21T08:54:38.160Z,48.27
2023-05-21T08:55:38.312Z,48.10
2023-05-21T08:56:38.120Z,49.57
2023-05-21T08:57:38.099Z,48.17
2023-05-21T08:58:38.102Z,48.47
2023-05-21T08:59:38.070Z,47.68
2023-05-21T09:00:38.056Z,48.27
2023-05-21T09:01:38.087Z,47.78
2023-05-21T09:02:38.076Z,48.76
2023-05-21T09:03:38.080Z,47.38
2023-05-21T09:04:38.093Z,48.66
2023-05-21T09:05:38.185Z,48.47
2023-05-21T09:06:37.999Z,48.96
2023-05-21T09:07:37.965Z,48.96
2023-05-21T09:08:37.984Z,50.81
2023-05-21T09:09:37.925Z,47.63
2023-05-21T09:10:37.933Z,47.63
2023-05-21T09:11:37.920Z,47.73
2023-05-21T09:12:37.914Z,48.35
2023-05-21T09:13:39.047Z,48.57
2023-05-21T09:14:37.870Z,49.48
2023-05-21T09:15:38.147Z,49.48
2023-05-21T09:16:37.867Z,50.07
2023-05-21T09:17:37.878Z,50.56
2023-05-21T09:18:37.827Z,49.28
2023-05-21T09:19:37.943Z,49.28
2023-05-21T09:20:37.807Z,49.50
2023-05-21T09:21:37.768Z,49.69
2023-05-21T09:22:37.813Z,49.92
2023-05-21T09:23:37.762Z,50.29
2023-05-21T09:24:37.751Z,49.69
2023-05-21T09:25:37.953Z,49.69
2023-05-21T09:26:37.765Z,50.38
2023-05-21T09:27:37.720Z,50.38
2023-05-21T09:28:37.694Z,51.37
2023-05-21T09:29:37.685Z,50.56
2023-05-21T09:30:38.094Z,49.67
2023-05-21T09:31:37.694Z,50.16
2023-05-21T09:32:37.710Z,50.16
2023-05-21T09:33:37.610Z,49.95
2023-05-21T09:34:37.628Z,49.92
2023-05-21T09:35:38.256Z,50.42
2023-05-21T09:36:37.593Z,49.01
2023-05-21T09:37:37.688Z,48.91
2023-05-21T09:38:37.552Z,46.65
2023-05-21T09:39:37.586Z,47.51
2023-05-21T09:40:37.777Z,48.30
2023-05-21T09:41:37.552Z,47.51
2023-05-21T09:42:37.492Z,47.80
2023-05-21T09:43:37.530Z,46.72
2023-05-21T09:44:37.474Z,48.00
2023-05-21T09:45:37.711Z,48.59
2023-05-21T09:46:37.488Z,47.31
2023-05-21T09:47:37.446Z,48.49
2023-05-21T09:48:37.423Z,48.61
2023-05-21T09:49:37.407Z,47.63
2023-05-21T09:50:37.626Z,47.92
2023-05-21T09:51:37.392Z,47.92
2023-05-21T09:52:37.387Z,47.83
2023-05-21T09:53:37.430Z,47.14
2023-05-21T09:54:37.357Z,48.52
2023-05-21T09:55:37.367Z,48.52
2023-05-21T09:56:37.334Z,47.73
2023-05-21T09:57:37.296Z,47.83
2023-05-21T09:58:37.298Z,47.53
2023-05-21T09:59:37.268Z,46.75
2023-05-21T10:00:37.549Z,46.84
2023-05-21T10:01:37.358Z,48.13
2023-05-21T10:02:37.294Z,47.34
2023-05-21T10:03:37.223Z,46.72
2023-05-21T10:04:37.356Z,48.10
2023-05-21T10:05:37.218Z,47.22
2023-05-21T10:06:37.206Z,47.41
2023-05-21T10:07:37.177Z,46.72
2023-05-21T10:08:37.181Z,47.63
2023-05-21T10:09:37.156Z,48.91
2023-05-21T10:10:37.281Z,48.52
2023-05-21T10:11:37.147Z,47.24
2023-05-21T10:12:37.150Z,47.44
2023-05-21T10:13:37.094Z,49.21
2023-05-21T10:14:37.107Z,48.13
2023-05-21T10:15:37.080Z,48.52
2023-05-21T10:16:37.188Z,47.73
2023-05-21T10:17:37.076Z,48.32
2023-05-21T10:18:37.029Z,46.35
2023-05-21T10:19:37.034Z,47.22
2023-05-21T10:20:37.299Z,47.31
2023-05-21T10:21:36.989Z,47.80
2023-05-21T10:22:37.008Z,48.08
2023-05-21T10:23:36.968Z,48.77
2023-05-21T10:24:36.980Z,47.86
2023-05-21T10:25:36.943Z,48.65
2023-05-21T10:26:36.936Z,46.46
2023-05-21T10:27:36.910Z,47.54
2023-05-21T10:28:36.912Z,47.52
2023-05-21T10:29:36.887Z,45.45
2023-05-21T10:30:37.277Z,45.16
2023-05-21T10:31:36.862Z,45.55
2023-05-21T10:32:37.002Z,44.30
2023-05-21T10:33:36.892Z,46.85
2023-05-21T10:34:36.835Z,46.36
2023-05-21T10:35:36.967Z,46.66
2023-05-21T10:36:36.794Z,45.87
2023-05-21T10:37:36.811Z,46.46
2023-05-21T10:38:36.804Z,44.81
2023-05-21T10:39:36.797Z,45.60
2023-05-21T10:40:37.086Z,45.50
2023-05-21T10:41:36.741Z,45.60
2023-05-21T10:42:36.769Z,45.20
2023-05-21T10:43:36.704Z,44.62
2023-05-21T10:44:36.730Z,43.83
2023-05-21T10:45:36.764Z,45.50
2023-05-21T10:46:36.683Z,46.19
2023-05-21T10:47:36.673Z,44.32
2023-05-21T10:48:36.675Z,45.01
2023-05-21T10:49:36.631Z,45.40
2023-05-21T10:50:36.768Z,45.99
2023-05-21T10:51:36.636Z,46.90
2023-05-21T10:52:36.642Z,46.60
2023-05-21T10:53:36.585Z,47.69
2023-05-21T10:54:36.572Z,46.21
2023-05-21T10:55:36.570Z,47.12
2023-05-21T10:56:36.576Z,47.91
2023-05-21T10:57:36.573Z,47.91
2023-05-21T10:58:36.516Z,47.91
2023-05-21T10:59:36.567Z,47.61
2023-05-21T11:00:36.719Z,46.23
2023-05-21T11:01:36.636Z,47.12
2023-05-21T11:02:36.548Z,46.82
2023-05-21T11:03:37.898Z,46.82
2023-05-21T11:04:36.444Z,46.03
2023-05-21T11:05:36.442Z,45.15
2023-05-21T11:06:36.441Z,44.76
2023-05-21T11:07:36.403Z,47.31
2023-05-21T11:08:36.466Z,46.60
2023-05-21T11:09:36.392Z,48.15
2023-05-21T11:10:36.747Z,45.30
2023-05-21T11:11:36.372Z,43.83
2023-05-21T11:12:36.361Z,44.91
2023-05-21T11:13:36.363Z,45.70
2023-05-21T11:14:36.406Z,44.62
2023-05-21T11:15:36.318Z,45.79
2023-05-21T11:16:36.339Z,46.66
2023-05-21T11:17:36.326Z,46.26
2023-05-21T11:18:36.276Z,45.97
2023-05-21T11:19:36.288Z,45.65
2023-05-21T11:20:36.422Z,41.82
2023-05-21T11:21:36.226Z,40.72
2023-05-21T11:22:36.212Z,41.90
2023-05-21T11:23:36.211Z,37.48
2023-05-21T11:24:36.185Z,38.66
2023-05-21T11:25:36.219Z,38.96
2023-05-21T11:26:36.167Z,36.09
2023-05-21T11:27:36.177Z,37.56
2023-05-21T11:28:36.149Z,40.01
2023-05-21T11:29:36.127Z,40.09
2023-05-21T11:30:36.900Z,38.33
2023-05-21T11:31:36.121Z,37.84
2023-05-21T11:32:36.187Z,37.05
2023-05-21T11:33:36.072Z,39.11
2023-05-21T11:34:36.076Z,38.43
2023-05-21T11:35:36.039Z,37.94
2023-05-21T11:36:36.199Z,36.76
2023-05-21T11:37:36.057Z,37.35
2023-05-21T11:38:36.010Z,36.96
2023-05-21T11:39:36.024Z,34.80
2023-05-21T11:40:36.222Z,37.07
2023-05-21T11:41:35.983Z,35.19
2023-05-21T11:42:35.966Z,35.41
2023-05-21T11:43:35.958Z,37.27
2023-05-21T11:44:35.994Z,38.56
2023-05-21T11:45:35.955Z,38.96
2023-05-21T11:46:35.966Z,37.88
2023-05-21T11:47:36.005Z,36.01
2023-05-21T11:48:35.898Z,37.99
2023-05-21T11:49:35.919Z,38.29
2023-05-21T11:50:36.117Z,39.17
2023-05-21T11:51:35.849Z,37.90
2023-05-21T11:52:35.830Z,37.60
2023-05-21T11:53:35.853Z,38.58
2023-05-21T11:54:35.822Z,38.80
2023-05-21T11:55:35.794Z,39.68
2023-05-21T11:56:35.797Z,40.56
2023-05-21T11:57:35.757Z,38.23
2023-05-21T11:58:35.765Z,37.93
2023-05-21T11:59:35.768Z,40.19
2023-05-21T12:00:35.903Z,41.16
2023-05-21T12:01:35.719Z,37.92
2023-05-21T12:02:35.778Z,38.40
2023-05-21T12:03:35.790Z,38.90
2023-05-21T12:04:35.706Z,41.14
2023-05-21T12:05:35.711Z,39.17
2023-05-21T12:06:35.676Z,38.58
2023-05-21T12:07:35.635Z,38.68
2023-05-21T12:08:35.647Z,38.37
2023-05-21T12:09:35.610Z,37.01
2023-05-21T12:10:35.787Z,38.76
2023-05-21T12:11:35.591Z,35.52
2023-05-21T12:12:49.861Z,36.99
2023-05-21T12:13:36.596Z,37.09
2023-05-21T12:14:35.564Z,36.49
2023-05-21T12:15:35.565Z,36.99
2023-05-21T12:16:35.596Z,36.70
2023-05-21T12:17:35.561Z,38.58
2023-05-21T12:18:35.535Z,37.60
2023-05-21T12:19:35.482Z,38.88
2023-05-21T12:20:35.712Z,38.39
2023-05-21T12:21:35.515Z,40.74
2023-05-21T12:22:35.536Z,38.48
2023-05-21T12:23:35.435Z,36.22
2023-05-21T12:24:35.434Z,38.98
2023-05-21T12:25:35.452Z,38.68
2023-05-21T12:26:35.406Z,40.45
2023-05-21T12:27:35.411Z,39.27
2023-05-21T12:28:35.387Z,39.35
2023-05-21T12:29:35.359Z,39.64
2023-05-21T12:30:35.569Z,39.35
2023-05-21T12:31:35.494Z,39.15
2023-05-21T12:32:35.452Z,37.90
2023-05-21T12:33:35.322Z,40.16
2023-05-21T12:34:35.286Z,40.25
2023-05-21T12:35:35.335Z,40.74
2023-05-21T12:36:35.288Z,39.76
2023-05-21T12:37:35.286Z,39.07
2023-05-21T12:38:35.262Z,41.33
2023-05-21T12:39:35.261Z,38.58
2023-05-21T12:40:35.513Z,39.00
2023-05-21T12:41:35.222Z,41.35
2023-05-21T12:42:35.185Z,37.92
2023-05-21T12:43:35.217Z,37.32
2023-05-21T12:44:36.713Z,39.70
2023-05-21T12:45:35.165Z,38.52
2023-05-21T12:46:35.246Z,38.52
2023-05-21T12:47:35.166Z,36.07
2023-05-21T12:48:35.118Z,36.47
2023-05-21T12:49:35.099Z,39.13
2023-05-21T12:50:35.364Z,40.31
2023-05-21T12:51:35.095Z,39.52
2023-05-21T12:52:35.104Z,39.62